Terminal Aerodrome Forecast
Issued by NWS

Home | Current Version | Previous Version | Text Only | Print | Product List | Glossary On
Versions: 1 2 3 4 5 6 7 8 9 10 11 12 13 14 15 16 17 18
000
FTUS43 KFGF 212148 AAA
TAFTVF
TAF AMD
KTVF 212148Z 2122/2218 11007KT P6SM OVC006
      TEMPO 2122/2124 OVC025
     FM220800 00000KT 1SM -FZDZ BR OVC003
     FM221500 00000KT 3/4SM -FZDZ BR OVC003
     FM221700 VRB03KT 1 1/2SM -DZ BR OVC003=

USA.gov is the U.S. government's official web portal to all federal, state and local government web resources and services.